Time;durP1;ratioP1;P1;durP2;ratioP2;P2;SDS_P1;SDS_P2;PMS_P1;PMS_P2;Temp;Humidity;BMP_temperature;BMP_pressure;BME280_temperature;BME280_humidity;BME280_pressure;Samples;Min_cycle;Max_cycle;Signal;HPM_P1;HPM_P2
2022/05/07 00:01:51;;;;;;;37.92;28.50;;;15.70;54.20;;;;;;5051105;28;20033;-65
2022/05/07 00:04:17;;;;;;;40.97;30.20;;;15.80;55.80;;;;;;5052058;28;20119;-65
2022/05/07 00:06:42;;;;;;;40.28;29.80;;;15.90;56.90;;;;;;5051792;28;20045;-65
2022/05/07 00:09:08;;;;;;;40.13;29.33;;;15.80;57.70;;;;;;5050923;28;20021;-65
2022/05/07 00:11:34;;;;;;;41.22;30.67;;;15.80;57.10;;;;;;5051922;28;20443;-65
2022/05/07 00:14:00;;;;;;;38.58;30.88;;;15.70;56.20;;;;;;5051959;28;20466;-65
2022/05/07 00:19:09;;;;;;;36.75;29.17;;;15.70;55.50;;;;;;5052192;28;20040;-65
2022/05/07 00:21:35;;;;;;;41.13;31.23;;;15.70;52.60;;;;;;5051998;28;20070;-66
2022/05/07 00:24:02;;;;;;;37.65;29.55;;;15.70;55.00;;;;;;5052845;28;20021;-66
2022/05/07 00:26:28;;;;;;;38.88;30.38;;;15.60;54.30;;;;;;5052089;28;20051;-65
2022/05/07 00:28:54;;;;;;;34.65;29.55;;;15.70;53.80;;;;;;5052587;28;20194;-66
2022/05/07 00:31:20;;;;;;;35.00;28.90;;;15.70;53.50;;;;;;5051912;28;20137;-66
2022/05/07 00:33:46;;;;;;;39.75;29.80;;;15.80;53.30;;;;;;5052272;28;20025;-66
2022/05/07 00:36:12;;;;;;;38.65;30.70;;;15.80;53.10;;;;;;5051174;28;20037;-66
2022/05/07 00:38:37;;;;;;;41.88;30.98;;;15.80;53.30;;;;;;5052346;28;20037;-66
2022/05/07 00:41:03;;;;;;;37.05;30.60;;;15.80;53.30;;;;;;5052039;28;20049;-63
2022/05/07 00:43:36;;;;;;;35.30;30.17;;;15.70;53.60;;;;;;5051184;28;20033;-64
2022/05/07 00:46:12;;;;;;;34.88;28.55;;;15.70;52.50;;;;;;5050787;28;20107;-63
2022/05/07 00:48:38;;;;;;;33.40;28.10;;;15.60;52.00;;;;;;5051174;28;20445;-64
2022/05/07 00:53:49;;;;;;;33.70;27.42;;;15.70;54.50;;;;;;5052899;28;20115;-64
2022/05/07 00:56:16;;;;;;;35.25;27.73;;;15.60;54.50;;;;;;5051476;28;20124;-64
2022/05/07 00:58:42;;;;;;;34.63;26.45;;;15.60;54.30;;;;;;5051508;28;20025;-64
2022/05/07 01:01:08;;;;;;;37.15;29.10;;;15.70;54.00;;;;;;5050641;28;20025;-65
2022/05/07 01:03:35;;;;;;;36.72;28.08;;;15.70;53.60;;;;;;5052435;28;20025;-65
2022/05/07 01:06:01;;;;;;;35.58;28.35;;;15.70;53.80;;;;;;5051064;28;20416;-65
2022/05/07 01:08:30;;;;;;;36.50;27.55;;;15.60;53.90;;;;;;5051673;28;20021;-64
2022/05/07 01:10:59;;;;;;;34.20;27.67;;;15.70;53.40;;;;;;5049684;28;20021;-65
2022/05/07 01:13:25;;;;;;;36.67;28.45;;;15.70;52.90;;;;;;5052466;28;20033;-65
2022/05/07 01:15:55;;;;;;;35.60;27.92;;;15.70;53.70;;;;;;5051008;28;20048;-65
2022/05/07 01:18:21;;;;;;;39.47;28.73;;;15.70;52.90;;;;;;5052227;28;20103;-65
2022/05/07 01:20:47;;;;;;;38.13;29.40;;;15.70;54.20;;;;;;5050788;28;20054;-66
2022/05/07 01:23:13;;;;;;;38.40;27.88;;;15.70;53.50;;;;;;5066080;28;20029;-66
2022/05/07 01:25:38;;;;;;;35.28;28.63;;;15.70;53.20;;;;;;5050497;28;20471;-66
2022/05/07 01:28:05;;;;;;;36.05;29.40;;;15.60;53.00;;;;;;5067449;28;20120;-66
2022/05/07 01:30:31;;;;;;;37.08;30.13;;;15.60;53.30;;;;;;5051186;28;20037;-66
2022/05/07 01:32:56;;;;;;;36.95;28.67;;;15.50;53.40;;;;;;5045065;28;20537;-66
2022/05/07 01:35:22;;;;;;;39.15;30.70;;;15.70;52.90;;;;;;5051156;28;20025;-65
2022/05/07 01:37:48;;;;;;;36.35;29.90;;;15.70;52.90;;;;;;5049759;28;20029;-65
2022/05/07 01:40:13;;;;;;;35.55;28.20;;;15.70;52.50;;;;;;5050204;28;20051;-65
2022/05/07 01:42:39;;;;;;;38.00;30.45;;;15.70;52.20;;;;;;5050867;28;20545;-65
2022/05/07 01:45:05;;;;;;;37.65;29.60;;;15.70;52.30;;;;;;5051809;28;20033;-65
2022/05/07 01:50:19;;;;;;;42.50;32.70;;;15.70;53.10;;;;;;5050680;28;20509;-66
2022/05/07 01:52:45;;;;;;;40.88;31.10;;;15.60;52.80;;;;;;5048536;28;20029;-66
2022/05/07 01:55:11;;;;;;;41.95;31.95;;;15.60;52.90;;;;;;5065290;28;20033;-66
2022/05/07 01:57:36;;;;;;;39.78;30.65;;;15.70;53.20;;;;;;5050470;28;20037;-66
2022/05/07 02:00:03;;;;;;;41.72;32.85;;;15.70;52.60;;;;;;5047258;28;20171;-66
2022/05/07 02:02:29;;;;;;;42.38;32.50;;;15.70;52.90;;;;;;5065415;28;20033;-66
2022/05/07 02:04:54;;;;;;;42.67;31.27;;;15.70;52.50;;;;;;5051046;28;20032;-66
2022/05/07 02:07:20;;;;;;;37.58;32.15;;;15.70;52.60;;;;;;5039552;28;20041;-66
2022/05/07 02:09:46;;;;;;;42.90;32.67;;;15.70;52.60;;;;;;5046518;28;20037;-66
2022/05/07 02:12:11;;;;;;;42.78;33.30;;;15.70;52.60;;;;;;5050322;28;20028;-66
2022/05/07 02:14:37;;;;;;;45.80;35.08;;;15.70;52.50;;;;;;5051577;28;20493;-66
2022/05/07 02:17:03;;;;;;;44.97;34.65;;;15.70;52.90;;;;;;5050507;28;20406;-66
2022/05/07 02:19:29;;;;;;;43.45;32.10;;;15.80;52.80;;;;;;5051458;28;20066;-66
2022/05/07 02:21:55;;;;;;;41.70;32.28;;;15.70;52.70;;;;;;5050281;28;20033;-66
2022/05/07 02:24:20;;;;;;;44.33;34.65;;;15.60;52.50;;;;;;5053703;28;20532;-66
2022/05/07 02:26:46;;;;;;;42.53;32.38;;;15.60;52.70;;;;;;5053511;28;20116;-66
2022/05/07 02:29:14;;;;;;;42.95;32.05;;;15.70;53.00;;;;;;5055136;28;20386;-67
2022/05/07 02:31:39;;;;;;;40.17;31.25;;;15.70;52.90;;;;;;5054264;28;20063;-66
2022/05/07 02:34:05;;;;;;;39.58;31.85;;;15.70;52.60;;;;;;5055011;28;20058;-66
2022/05/07 02:36:32;;;;;;;42.78;32.22;;;15.70;52.80;;;;;;5052257;28;20037;-66
2022/05/07 02:38:59;;;;;;;41.45;33.20;;;15.60;52.90;;;;;;5035038;28;20033;-66
2022/05/07 02:44:09;;;;;;;47.50;35.67;;;15.70;52.70;;;;;;5035613;28;20528;-66
2022/05/07 02:46:35;;;;;;;45.90;34.17;;;15.70;52.50;;;;;;5034977;28;20168;-66
2022/05/07 02:49:01;;;;;;;48.85;35.38;;;15.70;52.30;;;;;;5040355;28;20025;-66
2022/05/07 02:51:26;;;;;;;48.25;36.80;;;15.70;52.10;;;;;;5053581;28;20051;-65
2022/05/07 02:53:52;;;;;;;45.50;35.03;;;15.70;52.20;;;;;;5053624;28;20025;-65
2022/05/07 02:56:18;;;;;;;46.40;36.20;;;15.60;52.30;;;;;;5049387;28;20136;-66
2022/05/07 02:58:43;;;;;;;45.33;35.65;;;15.60;52.30;;;;;;5044090;28;20079;-67
2022/05/07 03:01:29;;;;;;;49.10;34.83;;;15.70;52.50;;;;;;5049260;28;20064;-67
2022/05/07 03:03:54;;;;;;;48.53;35.42;;;15.50;48.20;;;;;;5049789;28;20032;-67
2022/05/07 03:06:20;;;;;;;48.38;35.67;;;15.60;52.70;;;;;;5042696;28;20348;-67
2022/05/07 03:08:46;;;;;;;46.75;35.58;;;15.60;52.30;;;;;;5045814;28;20545;-66
2022/05/07 03:11:13;;;;;;;49.72;36.70;;;15.60;52.50;;;;;;5040983;28;20021;-66
2022/05/07 03:13:38;;;;;;;47.80;35.83;;;15.70;52.50;;;;;;5047599;28;20613;-67
2022/05/07 03:16:04;;;;;;;49.28;36.63;;;15.60;52.70;;;;;;5036972;28;20113;-66
2022/05/07 03:18:29;;;;;;;54.30;36.80;;;15.70;52.90;;;;;;5040056;28;20025;-67
2022/05/07 03:20:56;;;;;;;47.65;35.03;;;15.60;52.80;;;;;;5033789;28;20426;-66
2022/05/07 03:23:21;;;;;;;46.63;33.72;;;15.60;53.10;;;;;;5060196;28;20477;-66
2022/05/07 03:25:47;;;;;;;46.78;33.63;;;15.60;53.00;;;;;;5053936;28;20063;-67
2022/05/07 03:28:13;;;;;;;49.05;35.10;;;15.60;53.00;;;;;;5052491;28;20056;-67
2022/05/07 03:30:38;;;;;;;50.05;34.58;;;15.60;53.10;;;;;;5052677;28;20033;-66
2022/05/07 03:33:14;;;;;;;50.58;35.35;;;15.60;52.90;;;;;;5054049;28;20028;-67
2022/05/07 03:35:40;;;;;;;53.30;35.42;;;15.60;50.60;;;;;;5050550;28;20056;-66
2022/05/07 03:38:06;;;;;;;48.97;34.97;;;15.60;52.80;;;;;;5052502;28;20035;-67
2022/05/07 03:40:32;;;;;;;47.33;35.53;;;15.60;52.90;;;;;;5052316;28;20096;-66
2022/05/07 03:42:58;;;;;;;48.28;34.28;;;15.60;53.10;;;;;;5052673;28;20086;-66
2022/05/07 03:45:24;;;;;;;46.53;34.03;;;15.60;52.90;;;;;;5046446;28;20037;-67
2022/05/07 03:47:50;;;;;;;50.40;34.55;;;15.60;53.10;;;;;;5049846;28;20049;-66
2022/05/07 03:50:15;;;;;;;46.75;33.92;;;15.50;52.80;;;;;;5048997;28;20495;-66
2022/05/07 03:55:26;;;;;;;48.53;33.35;;;15.50;53.20;;;;;;5049934;28;20188;-66
2022/05/07 03:57:52;;;;;;;46.50;33.58;;;15.50;53.20;;;;;;5051502;28;20108;-67
2022/05/07 04:00:18;;;;;;;49.03;34.63;;;15.50;53.50;;;;;;5050369;28;20546;-67
2022/05/07 04:02:44;;;;;;;48.33;34.75;;;15.40;54.10;;;;;;5057825;28;20096;-67
2022/05/07 04:05:09;;;;;;;51.08;35.30;;;15.40;54.10;;;;;;5050085;28;20425;-66
2022/05/07 04:07:36;;;;;;;49.22;33.83;;;15.50;53.60;;;;;;5052732;28;20100;-66
2022/05/07 04:10:02;;;;;;;50.35;34.53;;;15.40;53.20;;;;;;5043017;28;20482;-66
2022/05/07 04:12:28;;;;;;;49.28;35.13;;;15.40;53.10;;;;;;5053608;28;20032;-67
2022/05/07 04:14:58;;;;;;;46.80;33.83;;;15.50;53.00;;;;;;5048680;28;20112;-66
2022/05/07 04:17:25;;;;;;;47.30;33.15;;;15.40;52.00;;;;;;5052890;28;20505;-66
2022/05/07 04:19:51;;;;;;;53.65;34.70;;;15.40;53.10;;;;;;5065395;28;20036;-66
2022/05/07 04:22:16;;;;;;;50.13;34.10;;;15.40;53.20;;;;;;5053040;28;20037;-66
2022/05/07 04:24:44;;;;;;;49.90;34.90;;;15.40;53.00;;;;;;5052523;28;20036;-66
2022/05/07 04:27:09;;;;;;;54.05;36.40;;;15.40;53.20;;;;;;5052870;28;20083;-67
2022/05/07 04:29:35;;;;;;;47.78;33.60;;;15.40;53.10;;;;;;5052453;28;20021;-66
2022/05/07 04:32:01;;;;;;;56.28;36.58;;;15.50;53.00;;;;;;5050488;28;20029;-67
2022/05/07 04:34:28;;;;;;;50.50;35.10;;;15.40;53.10;;;;;;5052764;28;20059;-66
2022/05/07 04:36:54;;;;;;;50.88;35.20;;;15.40;52.90;;;;;;5051586;28;20454;-66
2022/05/07 04:39:20;;;;;;;47.13;33.08;;;15.50;52.90;;;;;;5052991;28;20029;-66
2022/05/07 04:41:46;;;;;;;47.72;34.25;;;15.50;52.70;;;;;;5052216;28;20447;-67
2022/05/07 04:44:12;;;;;;;52.05;35.45;;;15.50;52.80;;;;;;5052107;28;20025;-67
2022/05/07 04:46:39;;;;;;;46.10;33.03;;;15.50;52.80;;;;;;5047281;28;20053;-67
2022/05/07 04:49:05;;;;;;;51.63;36.70;;;15.50;52.50;;;;;;5050809;28;20029;-67
2022/05/07 04:51:31;;;;;;;51.58;34.20;;;15.50;52.40;;;;;;5051971;28;20039;-67
2022/05/07 04:53:57;;;;;;;47.95;33.85;;;15.50;52.20;;;;;;5052941;28;20101;-66
2022/05/07 04:56:24;;;;;;;55.30;38.10;;;15.60;52.40;;;;;;5051592;28;20043;-67
2022/05/07 04:58:51;;;;;;;46.90;34.55;;;15.60;52.40;;;;;;5052777;28;20094;-67
2022/05/07 05:01:17;;;;;;;52.17;35.58;;;15.60;52.40;;;;;;5062125;28;20064;-67
2022/05/07 05:03:43;;;;;;;52.40;36.83;;;15.60;52.70;;;;;;5052862;28;20048;-67
2022/05/07 05:06:08;;;;;;;53.95;36.75;;;15.60;52.80;;;;;;5050796;28;20051;-67
2022/05/07 05:08:34;;;;;;;51.85;36.30;;;15.60;53.00;;;;;;5067933;28;20021;-67
2022/05/07 05:11:00;;;;;;;50.45;35.97;;;15.60;52.70;;;;;;5050586;28;20127;-66
2022/05/07 05:13:25;;;;;;;52.15;36.15;;;15.60;52.70;;;;;;5052239;28;20082;-66
2022/05/07 05:15:51;;;;;;;52.03;36.97;;;15.60;53.20;;;;;;5051655;28;20503;-67
2022/05/07 05:18:17;;;;;;;51.08;36.17;;;15.60;52.80;;;;;;5051367;28;20095;-66
2022/05/07 05:20:42;;;;;;;51.10;36.63;;;15.70;52.60;;;;;;5051489;28;20094;-67
2022/05/07 05:23:09;;;;;;;51.83;35.65;;;15.70;52.60;;;;;;5051915;28;20041;-66
2022/05/07 05:25:34;;;;;;;50.78;34.53;;;15.70;52.70;;;;;;5050025;28;20455;-66
2022/05/07 05:28:00;;;;;;;51.10;35.55;;;15.70;53.10;;;;;;5052371;28;20107;-66
2022/05/07 05:30:26;;;;;;;48.53;35.40;;;15.80;52.70;;;;;;5051105;28;20032;-66
2022/05/07 05:32:51;;;;;;;52.10;36.65;;;15.80;52.90;;;;;;5052227;28;20100;-66
2022/05/07 05:35:17;;;;;;;52.55;36.58;;;15.80;52.80;;;;;;5049477;28;20029;-66
2022/05/07 05:37:43;;;;;;;49.47;37.28;;;15.80;52.70;;;;;;5052233;28;20033;-66
2022/05/07 05:40:09;;;;;;;51.38;36.78;;;15.80;53.30;;;;;;5051348;28;20021;-66
2022/05/07 05:42:34;;;;;;;54.83;37.03;;;15.60;52.90;;;;;;5051984;28;20029;-67
2022/05/07 05:45:00;;;;;;;53.63;37.33;;;15.80;53.00;;;;;;5051464;28;20044;-66
2022/05/07 05:47:26;;;;;;;50.85;36.72;;;15.80;52.90;;;;;;5051498;28;20077;-66
2022/05/07 05:49:52;;;;;;;52.60;37.42;;;15.80;53.20;;;;;;5049630;28;20035;-66
2022/05/07 05:52:18;;;;;;;48.05;34.97;;;15.80;52.90;;;;;;5067150;28;20458;-67
2022/05/07 05:54:45;;;;;;;48.78;36.05;;;15.80;53.10;;;;;;5050519;28;20162;-66
2022/05/07 05:57:11;;;;;;;47.17;34.13;;;15.90;52.70;;;;;;5047347;28;20091;-66
2022/05/07 05:59:37;;;;;;;49.38;35.40;;;15.90;52.50;;;;;;5052608;28;20029;-65
2022/05/07 06:02:03;;;;;;;48.08;34.40;;;16.00;52.20;;;;;;5050571;28;20036;-66
2022/05/07 06:04:29;;;;;;;44.65;33.53;;;16.00;52.30;;;;;;5052882;28;20029;-66
2022/05/07 06:06:54;;;;;;;49.50;34.72;;;15.90;51.90;;;;;;5053329;28;20074;-66
2022/05/07 06:09:21;;;;;;;45.65;34.88;;;16.00;50.90;;;;;;5051253;28;20068;-66
2022/05/07 06:11:47;;;;;;;45.65;33.28;;;16.00;51.60;;;;;;5051846;28;20040;-66
2022/05/07 06:14:13;;;;;;;43.45;32.83;;;16.10;50.60;;;;;;5052698;28;20029;-66
2022/05/07 06:16:38;;;;;;;43.90;32.90;;;16.10;51.60;;;;;;5053718;28;20048;-66
2022/05/07 06:19:05;;;;;;;45.17;33.42;;;16.10;51.20;;;;;;5052876;28;20025;-66
2022/05/07 06:21:31;;;;;;;41.42;31.30;;;16.10;51.10;;;;;;5052729;28;20411;-66
2022/05/07 06:27:28;;;;;;;37.85;28.90;;;16.20;50.70;;;;;;5052993;28;20037;-66
2022/05/07 06:29:26;;;;;;;34.20;27.23;;;16.30;50.10;;;;;;5050545;28;20055;-66
2022/05/07 06:31:52;;;;;;;36.42;27.17;;;16.30;50.00;;;;;;5052598;28;20033;-66
2022/05/07 06:34:22;;;;;;;41.75;29.25;;;16.30;50.00;;;;;;5053236;28;20037;-65
2022/05/07 06:36:47;;;;;;;34.33;26.08;;;16.30;49.50;;;;;;5052248;28;20472;-65
2022/05/07 06:39:13;;;;;;;41.08;30.23;;;16.30;49.00;;;;;;5053493;28;20060;-66
2022/05/07 06:41:40;;;;;;;39.65;30.67;;;16.30;49.10;;;;;;5052740;28;20032;-66
2022/05/07 06:44:05;;;;;;;38.10;28.73;;;16.40;49.20;;;;;;5051163;28;20414;-66
2022/05/07 06:46:31;;;;;;;33.60;26.98;;;16.30;49.40;;;;;;5052179;28;20055;-66
2022/05/07 06:48:57;;;;;;;35.28;26.80;;;16.40;49.00;;;;;;5052648;28;20027;-65
2022/05/07 06:51:24;;;;;;;38.83;28.60;;;16.40;47.90;;;;;;5035939;28;20069;-66
2022/05/07 06:53:49;;;;;;;37.10;27.48;;;16.40;48.60;;;;;;5051993;28;20025;-66
2022/05/07 06:56:17;;;;;;;36.80;28.30;;;16.50;48.20;;;;;;5051875;28;20029;-66
2022/05/07 06:58:42;;;;;;;39.42;28.70;;;16.60;47.40;;;;;;5053423;28;20025;-66
2022/05/07 07:01:08;;;;;;;37.30;29.10;;;16.60;47.40;;;;;;5052165;28;20061;-66
2022/05/07 07:03:34;;;;;;;32.38;26.75;;;16.70;47.60;;;;;;5052762;28;20513;-66
2022/05/07 07:06:00;;;;;;;39.13;26.10;;;16.70;46.90;;;;;;5054043;28;20070;-66
2022/05/07 07:08:29;;;;;;;32.10;25.15;;;16.70;46.20;;;;;;5053655;28;20419;-66
2022/05/07 07:10:55;;;;;;;41.95;29.38;;;16.80;46.30;;;;;;5047123;28;20103;-66
2022/05/07 07:13:20;;;;;;;39.33;29.25;;;16.80;46.40;;;;;;5058951;28;20508;-66
2022/05/07 07:15:47;;;;;;;37.70;28.33;;;16.90;46.60;;;;;;5052102;28;20044;-66
2022/05/07 07:18:13;;;;;;;37.08;28.67;;;16.90;46.80;;;;;;5052951;28;20037;-66
2022/05/07 07:20:43;;;;;;;39.97;29.40;;;16.90;46.60;;;;;;5051791;28;20048;-66
2022/05/07 07:23:11;;;;;;;38.72;29.58;;;16.90;44.60;;;;;;5053403;28;20094;-66
2022/05/07 07:25:37;;;;;;;36.28;28.75;;;17.00;45.80;;;;;;5053476;28;20056;-65
2022/05/07 07:28:03;;;;;;;36.90;28.55;;;16.90;45.90;;;;;;5053471;28;20029;-66
2022/05/07 07:30:29;;;;;;;38.47;30.58;;;17.00;45.70;;;;;;5040111;28;20429;-65
2022/05/07 07:32:55;;;;;;;36.80;28.90;;;17.00;45.70;;;;;;5033908;28;20030;-63
2022/05/07 07:35:20;;;;;;;34.58;28.60;;;17.00;45.10;;;;;;5052225;28;20036;-65
2022/05/07 07:37:46;;;;;;;34.60;26.50;;;17.10;45.20;;;;;;5059214;28;20032;-65
2022/05/07 07:40:13;;;;;;;36.08;26.52;;;17.10;44.90;;;;;;5052974;28;20052;-65
2022/05/07 07:42:42;;;;;;;35.50;28.33;;;17.10;43.80;;;;;;5051271;28;20029;-65
2022/05/07 07:47:57;;;;;;;37.00;28.25;;;17.00;41.50;;;;;;5050469;28;20063;-65
2022/05/07 07:50:29;;;;;;;35.75;27.38;;;17.20;44.00;;;;;;5049123;28;20086;-65
2022/05/07 07:52:57;;;;;;;38.35;28.23;;;17.30;41.80;;;;;;5050843;28;20031;-65
2022/05/07 07:55:23;;;;;;;35.50;26.35;;;17.30;43.20;;;;;;5049066;28;20105;-65
2022/05/07 07:57:52;;;;;;;31.65;26.50;;;17.40;43.90;;;;;;5049023;28;20363;-65
2022/05/07 08:00:18;;;;;;;31.13;23.30;;;17.40;43.40;;;;;;5050166;28;20037;-65
2022/05/07 08:02:51;;;;;;;22.13;19.17;;;17.40;42.70;;;;;;5051102;28;20082;-65
2022/05/07 08:05:23;;;;;;;23.73;20.43;;;17.40;37.90;;;;;;5049208;28;20131;-65
2022/05/07 08:13:19;;;;;;;22.40;19.55;;;17.50;39.80;;;;;;5050446;28;20040;-66
2022/05/07 08:15:45;;;;;;;21.25;17.42;;;17.60;40.00;;;;;;5046734;28;20041;-65
2022/05/07 08:18:12;;;;;;;26.25;20.88;;;17.70;40.70;;;;;;5051925;28;20032;-65
2022/05/07 08:20:38;;;;;;;26.92;21.63;;;17.80;37.80;;;;;;5050568;28;20061;-65
2022/05/07 08:23:03;;;;;;;26.67;22.50;;;17.80;38.80;;;;;;5051543;28;20029;-65
2022/05/07 08:25:29;;;;;;;23.85;18.63;;;17.80;39.40;;;;;;5051556;28;20029;-65
2022/05/07 08:27:55;;;;;;;22.13;18.15;;;17.80;38.00;;;;;;5052034;28;20033;-65
2022/05/07 08:30:20;;;;;;;20.98;15.25;;;17.80;35.00;;;;;;5051901;28;20037;-65
2022/05/07 08:32:46;;;;;;;16.63;14.60;;;17.80;36.00;;;;;;5052686;28;20454;-65
2022/05/07 08:35:12;;;;;;;6.57;5.78;;;17.90;35.40;;;;;;5050782;28;20025;-65
2022/05/07 08:37:37;;;;;;;9.73;8.20;;;18.00;33.90;;;;;;5051804;28;20438;-65
2022/05/07 08:40:03;;;;;;;13.05;11.07;;;18.10;31.90;;;;;;5051747;28;20017;-65
2022/05/07 08:42:36;;;;;;;13.55;12.00;;;18.10;32.40;;;;;;5052581;28;20029;-65
2022/05/07 08:45:02;;;;;;;15.30;12.60;;;18.20;29.90;;;;;;5051499;28;20017;-65
2022/05/07 08:47:28;;;;;;;16.77;14.57;;;18.20;31.40;;;;;;5052226;28;20099;-65
2022/05/07 08:49:54;;;;;;;15.40;13.80;;;18.30;31.80;;;;;;5051556;28;20394;-64
2022/05/07 08:52:22;;;;;;;14.48;12.93;;;18.30;31.60;;;;;;5052298;28;20032;-64
2022/05/07 08:54:48;;;;;;;18.05;14.15;;;18.40;30.50;;;;;;5051590;28;20458;-64
2022/05/07 08:57:13;;;;;;;15.75;12.80;;;18.40;31.20;;;;;;5047753;28;20041;-64
2022/05/07 08:59:40;;;;;;;16.23;14.52;;;18.50;30.80;;;;;;5051300;28;20024;-64
2022/05/07 09:02:06;;;;;;;14.38;12.95;;;18.50;30.30;;;;;;5032414;28;20041;-64
2022/05/07 09:04:32;;;;;;;17.85;13.20;;;18.40;30.10;;;;;;5032210;28;20021;-64
2022/05/07 09:07:01;;;;;;;18.27;13.40;;;18.30;24.90;;;;;;5049707;28;20144;-64
2022/05/07 09:09:30;;;;;;;15.45;13.75;;;18.40;30.00;;;;;;5048756;28;20025;-64
2022/05/07 09:11:56;;;;;;;16.08;13.48;;;18.40;28.90;;;;;;5043361;28;20865;-64
2022/05/07 09:14:29;;;;;;;15.77;13.57;;;18.50;28.50;;;;;;5043180;28;20059;-64
2022/05/07 09:16:59;;;;;;;15.57;13.73;;;18.60;26.90;;;;;;5035078;28;20041;-63
2022/05/07 09:19:29;;;;;;;13.45;11.93;;;18.60;27.20;;;;;;5033955;28;20112;-64
2022/05/07 09:22:11;;;;;;;17.52;13.40;;;18.70;28.00;;;;;;5036036;28;20033;-63
2022/05/07 09:24:40;;;;;;;16.48;13.75;;;18.80;24.50;;;;;;5042714;28;20036;-64
2022/05/07 09:27:06;;;;;;;15.15;12.48;;;18.80;28.10;;;;;;5048474;28;20025;-64
2022/05/07 09:29:33;;;;;;;13.10;11.75;;;18.70;27.80;;;;;;5066311;28;20359;-64
2022/05/07 09:32:15;;;;;;;16.60;13.93;;;18.80;28.20;;;;;;5040279;28;20382;-64
2022/05/07 09:37:37;;;;;;;13.38;11.35;;;18.80;24.20;;;;;;5037892;28;20059;-64
2022/05/07 09:40:09;;;;;;;14.35;12.30;;;18.90;26.30;;;;;;5050215;28;20451;-64
2022/05/07 09:42:34;;;;;;;13.30;11.65;;;19.00;26.90;;;;;;5050920;28;20029;-64
2022/05/07 09:45:01;;;;;;;14.13;12.57;;;19.10;27.30;;;;;;5054342;28;20036;-64
2022/05/07 09:47:27;;;;;;;13.30;11.90;;;19.10;25.20;;;;;;5063994;28;20045;-64
2022/05/07 09:57:30;;;;;;;;;;;19.20;26.80;;;;;;5052168;28;20035;-64
2022/05/07 09:58:09;;;;;;;14.65;11.20;;;19.30;27.20;;;;;;5051927;28;20060;-64
2022/05/07 10:00:53;;;;;;;14.43;12.90;;;19.40;26.40;;;;;;5050690;28;20443;-64
2022/05/07 10:03:53;;;;;;;13.98;12.48;;;19.40;22.50;;;;;;5051698;28;20467;-64
2022/05/07 10:06:58;;;;;;;13.23;11.85;;;19.40;18.40;;;;;;5050133;28;20124;-64
2022/05/07 10:09:24;;;;;;;16.70;13.65;;;19.40;19.70;;;;;;5051590;28;20082;-64
2022/05/07 10:11:55;;;;;;;15.82;13.10;;;19.50;26.70;;;;;;5064517;28;20037;-64
2022/05/07 10:14:26;;;;;;;14.15;12.23;;;19.50;23.40;;;;;;5051378;28;20378;-64
2022/05/07 10:17:12;;;;;;;14.15;12.75;;;19.70;23.40;;;;;;5060152;28;20063;-63
2022/05/07 10:19:45;;;;;;;17.08;12.85;;;19.80;19.30;;;;;;5067331;28;20156;-62
2022/05/07 10:22:24;;;;;;;14.13;12.73;;;20.00;21.40;;;;;;5049236;28;20037;-62
2022/05/07 10:25:06;;;;;;;14.13;12.63;;;20.00;21.70;;;;;;5050365;28;20197;-61
2022/05/07 10:27:35;;;;;;;13.30;11.85;;;20.10;19.80;;;;;;5054134;28;20039;-61
2022/05/07 10:30:13;;;;;;;11.93;10.77;;;20.20;23.20;;;;;;5050203;28;20033;-61
2022/05/07 10:33:04;;;;;;;14.25;12.73;;;20.30;19.90;;;;;;5035860;28;20463;-62
2022/05/07 10:35:53;;;;;;;13.15;11.85;;;20.30;18.70;;;;;;5059847;28;20395;-62
2022/05/07 10:38:37;;;;;;;14.68;12.68;;;20.40;17.20;;;;;;5050836;28;20111;-62
2022/05/07 10:41:11;;;;;;;14.25;11.85;;;20.40;18.50;;;;;;5050366;28;20170;-62
2022/05/07 10:43:42;;;;;;;17.20;14.48;;;20.40;23.80;;;;;;5051222;28;20075;-62
2022/05/07 10:46:10;;;;;;;14.18;12.75;;;20.40;20.50;;;;;;5053134;28;20127;-61
2022/05/07 10:48:45;;;;;;;13.65;12.25;;;20.30;22.10;;;;;;5054751;28;20028;-61
2022/05/07 10:51:18;;;;;;;14.90;12.80;;;20.30;17.60;;;;;;5053087;28;20112;-61
2022/05/07 10:53:43;;;;;;;13.13;11.55;;;20.40;17.40;;;;;;5054618;28;20052;-62
2022/05/07 10:56:17;;;;;;;14.32;12.75;;;20.40;22.00;;;;;;5068090;28;20079;-61
2022/05/07 10:58:52;;;;;;;13.38;11.68;;;20.40;20.20;;;;;;5053566;28;20021;-61
2022/05/07 11:01:19;;;;;;;14.77;12.90;;;20.50;17.90;;;;;;5053539;28;20025;-62
2022/05/07 11:03:45;;;;;;;12.80;11.48;;;20.40;21.90;;;;;;5043877;28;20044;-62
2022/05/07 11:06:11;;;;;;;13.48;12.18;;;20.50;21.20;;;;;;5041964;28;20100;-62
2022/05/07 11:08:49;;;;;;;13.35;11.70;;;20.60;21.80;;;;;;5054492;28;20055;-63
2022/05/07 11:11:15;;;;;;;11.88;10.77;;;20.80;15.40;;;;;;5053681;28;20142;-62
2022/05/07 11:13:57;;;;;;;13.02;9.85;;;20.90;21.40;;;;;;5054383;28;20054;-62
2022/05/07 11:16:23;;;;;;;11.90;10.75;;;21.00;14.00;;;;;;5052832;28;20068;-62
2022/05/07 11:18:53;;;;;;;12.57;10.35;;;21.10;20.20;;;;;;5054092;28;20029;-62
2022/05/07 11:21:20;;;;;;;13.30;10.27;;;21.20;16.60;;;;;;5053318;28;20510;-62
2022/05/07 11:23:55;;;;;;;10.55;9.45;;;21.30;19.30;;;;;;5053260;28;20037;-62
2022/05/07 11:26:22;;;;;;;11.55;9.65;;;21.40;15.10;;;;;;5052648;28;20482;-62
2022/05/07 11:28:50;;;;;;;12.30;9.30;;;21.50;18.70;;;;;;5053087;28;20025;-62
2022/05/07 11:31:25;;;;;;;10.05;8.90;;;21.60;16.30;;;;;;5049664;28;20115;-62
2022/05/07 11:34:01;;;;;;;9.77;8.82;;;21.50;13.70;;;;;;5054433;28;20040;-62
2022/05/07 11:36:27;;;;;;;12.23;10.40;;;21.30;14.50;;;;;;5052964;28;20040;-62
2022/05/07 11:39:01;;;;;;;11.40;10.27;;;21.20;19.80;;;;;;5052880;28;20100;-62
2022/05/07 11:41:27;;;;;;;;;;;21.10;14.30;;;;;;5062918;28;20078;-62
2022/05/07 11:46:56;;;;;;;12.43;9.95;;;21.00;20.50;;;;;;5052787;28;20115;-62
2022/05/07 11:49:33;;;;;;;13.45;8.82;;;20.90;13.60;;;;;;5040765;28;20053;-62
2022/05/07 11:52:10;;;;;;;10.57;9.57;;;20.70;14.80;;;;;;5064630;28;20033;-62
2022/05/07 11:54:49;;;;;;;10.25;8.77;;;20.90;13.00;;;;;;5052104;28;20190;-61
2022/05/07 11:57:29;;;;;;;9.52;8.07;;;20.90;12.20;;;;;;5052731;28;20392;-61
2022/05/07 11:59:55;;;;;;;9.55;8.35;;;21.10;12.90;;;;;;5053716;28;20378;-62
2022/05/07 12:02:21;;;;;;;10.65;9.55;;;21.10;17.10;;;;;;5052479;28;20102;-61
2022/05/07 12:05:00;;;;;;;12.60;11.43;;;21.10;17.80;;;;;;5053003;28;20032;-61
2022/05/07 12:07:25;;;;;;;12.38;11.18;;;21.00;13.00;;;;;;5051751;28;20542;-61
2022/05/07 12:09:51;;;;;;;11.52;10.45;;;21.00;18.00;;;;;;5053402;28;20096;-62
2022/05/07 12:12:16;;;;;;;10.35;9.23;;;21.00;17.40;;;;;;5051254;28;20455;-62
2022/05/07 12:14:42;;;;;;;10.68;9.77;;;21.00;17.50;;;;;;5052754;28;20052;-62
2022/05/07 12:19:52;;;;;;;10.48;7.68;;;21.30;16.20;;;;;;5053330;28;20032;-62
2022/05/07 12:30:29;;;;;;;7.40;5.22;;;21.60;16.10;;;;;;5053397;28;20040;-62
2022/05/07 12:32:55;;;;;;;7.18;6.57;;;21.70;16.20;;;;;;5051977;28;20029;-62
2022/05/07 12:35:21;;;;;;;6.78;5.72;;;21.80;13.20;;;;;;5052457;28;20032;-62
2022/05/07 12:37:46;;;;;;;5.97;5.35;;;21.80;15.20;;;;;;5050826;28;20399;-62
2022/05/07 12:40:12;;;;;;;6.60;6.07;;;21.90;14.40;;;;;;5053006;28;20013;-62
2022/05/07 12:42:38;;;;;;;8.18;7.20;;;22.00;9.40;;;;;;5051055;28;20029;-62
2022/05/07 12:45:04;;;;;;;8.80;7.70;;;22.10;13.70;;;;;;5052262;28;20102;-61
2022/05/07 12:47:30;;;;;;;7.57;6.88;;;22.00;11.10;;;;;;5049131;28;20061;-62
2022/05/07 12:49:56;;;;;;;7.63;6.93;;;21.90;13.60;;;;;;5067137;28;20039;-61
2022/05/07 12:52:24;;;;;;;8.02;7.30;;;21.70;13.80;;;;;;5050209;28;20021;-61
2022/05/07 12:54:50;;;;;;;8.88;7.90;;;21.70;13.80;;;;;;5046215;28;20029;-61
2022/05/07 12:57:16;;;;;;;7.63;7.03;;;21.60;12.90;;;;;;5048342;28;20032;-62
2022/05/07 12:59:42;;;;;;;8.70;7.90;;;21.40;13.50;;;;;;5049900;28;20113;-62
2022/05/07 13:02:10;;;;;;;9.07;7.72;;;21.40;12.90;;;;;;5051069;28;20458;-62
2022/05/07 13:04:35;;;;;;;9.05;7.63;;;21.40;13.40;;;;;;5044144;28;20024;-62
2022/05/07 13:07:02;;;;;;;9.00;8.10;;;21.40;13.50;;;;;;5049051;28;20024;-62
2022/05/07 13:09:27;;;;;;;9.30;8.30;;;21.40;13.50;;;;;;5052658;28;20021;-63
2022/05/07 13:11:53;;;;;;;9.45;8.55;;;21.40;13.90;;;;;;5050866;28;20025;-63
2022/05/07 13:14:20;;;;;;;9.70;8.77;;;21.40;13.90;;;;;;5052660;28;20025;-62
2022/05/07 13:16:46;;;;;;;9.70;8.75;;;21.40;13.80;;;;;;5051294;28;20029;-63
2022/05/07 13:19:12;;;;;;;9.90;8.95;;;21.60;13.60;;;;;;5052433;28;20027;-63
2022/05/07 13:21:38;;;;;;;9.27;8.38;;;21.80;12.90;;;;;;5050235;28;20052;-62